Time;durP1;ratioP1;P1;durP2;ratioP2;P2;SDS_P1;SDS_P2;PMS_P1;PMS_P2;Temp;Humidity;BMP_temperature;BMP_pressure;BME280_temperature;BME280_humidity;BME280_pressure;Samples;Min_cycle;Max_cycle;Signal;HPM_P1;HPM_P2
2022/04/09 09:27:21;;;;;;;;;;;;;;;;;;1570029;27;90423;-75
2022/04/09 09:28:06;;;;;;;;;;;;;;;;;;1569192;27;97574;-73
2022/04/09 09:28:51;;;;;;;;;;;;;;;;;;1556698;27;91697;-73
2022/04/09 09:29:36;;;;;;;;;;;;;;;;;;1562296;27;90957;-74
2022/04/09 09:30:21;;;;;;;;;;;;;;;;;;1569549;27;91767;-74
2022/04/09 09:31:08;;;;;;;;;;;;;;;;;;1569783;27;93042;-73
2022/04/09 09:31:53;;;;;;;;;;;;;;;;;;1568031;27;83159;-74
2022/04/09 09:32:41;;;;;;;;;;;;;;;;;;1563604;27;90076;-74
2022/04/09 09:33:26;;;;;;;;;;;;;;;;;;1563505;27;92323;-73
2022/04/09 09:34:11;;;;;;;;;;;;;;;;;;1561315;27;95019;-74
2022/04/09 09:34:56;;;;;;;;;;;;;;;;;;1556821;27;93403;-74
2022/04/09 09:35:42;;;;;;;;;;;;;;;;;;1557110;27;96839;-74
2022/04/09 09:36:27;;;;;;;;;;;;;;;;;;1557189;27;91066;-73
2022/04/09 09:37:12;;;;;;;;;;;;;;;;;;1556929;27;91208;-74
2022/04/09 09:37:57;;;;;;;;;;;;;;;;;;1557401;27;90939;-73
2022/04/09 09:38:43;;;;;;;;;;;;;;;;;;1557440;27;91883;-73
2022/04/09 09:39:33;;;;;;;;;;;;;;;;;;1561742;27;92508;-74
2022/04/09 09:40:18;;;;;;;;;;;;;;;;;;1563302;27;95247;-73
2022/04/09 09:41:04;;;;;;;;;;;;;;;;;;1562985;27;91102;-74
2022/04/09 09:41:49;;;;;;;;;;;;;;;;;;1563115;27;95885;-74
2022/04/09 09:42:35;;;;;;;;;;;;;;;;;;1563223;27;96709;-73
2022/04/09 09:43:20;;;;;;;;;;;;;;;;;;1563237;27;91542;-74
2022/04/09 09:44:06;;;;;;;;;;;;;;;;;;1563341;27;92079;-73
2022/04/09 09:44:51;;;;;;;;;;;;;;;;;;1563049;27;94689;-74
2022/04/09 09:45:36;;;;;;;;;;;;;;;;;;1565665;27;89118;-73
2022/04/09 09:46:21;;;;;;;;;;;;;;;;;;1569581;27;90211;-73
2022/04/09 09:47:07;;;;;;;;;;;;;;;;;;1569546;27;90008;-74
2022/04/09 09:47:52;;;;;;;;;;;;;;;;;;1569354;27;86878;-73
2022/04/09 09:48:37;;;;;;;;;;;;;;;;;;1570063;27;86448;-73
2022/04/09 09:49:24;;;;;;;;;;;;;;;;;;1558891;27;84492;-73
2022/04/09 09:50:10;;;;;;;;;;;;;;;;;;1563337;27;90689;-73
2022/04/09 09:50:55;;;;;;;;;;;;;;;;;;1563490;27;88532;-74
2022/04/09 09:51:42;;;;;;;;;;;;;;;;;;1563252;27;91341;-74
2022/04/09 09:52:27;;;;;;;;;;;;;;;;;;1563558;27;88470;-74
2022/04/09 09:53:12;;;;;;;;;;;;;;;;;;1563272;27;90978;-73
2022/04/09 09:53:57;;;;;;;;;;;;;;;;;;1561870;27;83033;-74
2022/04/09 09:54:43;;;;;;;;;;;;;;;;;;1563093;27;89049;-74
2022/04/09 09:55:28;;;;;;;;;;;;;;;;;;1563515;27;91097;-74
2022/04/09 09:56:13;;;;;;;;;;;;;;;;;;1563127;27;90015;-74
2022/04/09 09:56:58;;;;;;;;;;;;;;;;;;1562874;27;90223;-74
2022/04/09 09:57:43;;;;;;;;;;;;;;;;;;1562784;27;91446;-74
2022/04/09 09:58:28;;;;;;;;;;;;;;;;;;1562826;27;98429;-74
2022/04/09 09:59:13;;;;;;;;;;;;;;;;;;1562622;27;93943;-74
2022/04/09 09:59:58;;;;;;;;;;;;;;;;;;1562669;27;99222;-75
2022/04/09 10:00:44;;;;;;;;;;;;;;;;;;1562517;27;97916;-74
2022/04/09 10:01:29;;;;;;;;;;;;;;;;;;1562324;27;97228;-74
2022/04/09 10:02:14;;;;;;;;;;;;;;;;;;1561355;27;93903;-74
2022/04/09 10:02:59;;;;;;;;;;;;;;;;;;1560852;27;94208;-74
2022/04/09 10:03:44;;;;;;;;;;;;;;;;;;1559118;27;97176;-74
2022/04/09 10:04:29;;;;;;;;;;;;;;;;;;1555519;28;99443;-74
2022/04/09 10:05:14;;;;;;;;;;;;;;;;;;1555903;28;92195;-74
2022/04/09 10:05:59;;;;;;;;;;;;;;;;;;1561357;27;93485;-74
2022/04/09 10:06:44;;;;;;;;;;;;;;;;;;1561634;27;92391;-75
2022/04/09 10:07:30;;;;;;;;;;;;;;;;;;1561587;27;93989;-74
2022/04/09 10:08:15;;;;;;;;;;;;;;;;;;1561016;27;101166;-74
2022/04/09 10:09:00;;;;;;;;;;;;;;;;;;1557226;27;91791;-73
2022/04/09 10:09:45;;;;;;;;;;;;;;;;;;1560053;27;93838;-72
2022/04/09 10:10:30;;;;;;;;;;;;;;;;;;1562583;27;103398;-72
2022/04/09 10:11:15;;;;;;;;;;;;;;;;;;1560883;27;105493;-72
2022/04/09 10:12:02;;;;;;;;;;;;;;;;;;1559890;27;102061;-72
2022/04/09 10:12:47;;;;;;;;;;;;;;;;;;1556945;27;85495;-72
2022/04/09 10:13:32;;;;;;;;;;;;;;;;;;1553050;27;89800;-72
2022/04/09 10:14:18;;;;;;;;;;;;;;;;;;1550240;27;102712;-72
2022/04/09 10:15:03;;;;;;;;;;;;;;;;;;1548481;27;113968;-72
2022/04/09 10:15:50;;;;;;;;;;;;;;;;;;1538825;27;120579;-72
2022/04/09 10:16:35;;;;;;;;;;;;;;;;;;1535273;27;103596;-72
2022/04/09 10:17:20;;;;;;;;;;;;;;;;;;1537675;27;115466;-72
2022/04/09 10:18:05;;;;;;;;;;;;;;;;;;1538043;27;120296;-72
2022/04/09 10:18:50;;;;;;;;;;;;;;;;;;1538517;27;112817;-72
2022/04/09 10:19:35;;;;;;;;;;;;;;;;;;1535562;27;117329;-73
2022/04/09 10:20:21;;;;;;;;;;;;;;;;;;1537876;27;104774;-73
2022/04/09 10:21:06;;;;;;;;;;;;;;;;;;1536717;27;121038;-72
2022/04/09 10:21:51;;;;;;;;;;;;;;;;;;1533850;27;113550;-72
2022/04/09 10:22:36;;;;;;;;;;;;;;;;;;1527983;27;105360;-72
2022/04/09 10:23:22;;;;;;;;;;;;;;;;;;1537110;27;111207;-72
2022/04/09 10:24:08;;;;;;;;;;;;;;;;;;1536877;27;107808;-72
2022/04/09 10:24:53;;;;;;;;;;;;;;;;;;1534138;27;112260;-72
2022/04/09 10:25:41;;;;;;;;;;;;;;;;;;1531858;27;121444;-72
2022/04/09 10:26:28;;;;;;;;;;;;;;;;;;1523142;27;97144;-72
2022/04/09 10:27:13;;;;;;;;;;;;;;;;;;1520766;27;123989;-72
2022/04/09 10:27:58;;;;;;;;;;;;;;;;;;1519034;27;125453;-72
2022/04/09 10:28:44;;;;;;;;;;;;;;;;;;1512496;27;124427;-73
2022/04/09 10:29:29;;;;;;;;;;;;;;;;;;1505974;28;102747;-72
2022/04/09 10:30:15;;;;;;;;;;;;;;;;;;1508454;28;126467;-72
2022/04/09 10:31:00;;;;;;;;;;;;;;;;;;1513996;27;126833;-73
2022/04/09 10:31:45;;;;;;;;;;;;;;;;;;1520974;27;109132;-72
2022/04/09 10:32:30;;;;;;;;;;;;;;;;;;1526737;27;107546;-72
2022/04/09 10:33:15;;;;;;;;;;;;;;;;;;1529343;27;120108;-72
2022/04/09 10:34:00;;;;;;;;;;;;;;;;;;1521068;27;120609;-72
2022/04/09 10:34:45;;;;;;;;;;;;;;;;;;1529098;28;92858;-74
2022/04/09 10:35:31;;;;;;;;;;;;;;;;;;1533804;28;115373;-74
2022/04/09 10:36:16;;;;;;;;;;;;;;;;;;1537865;28;105982;-74
2022/04/09 10:37:03;;;;;;;;;;;;;;;;;;1541013;28;112946;-74
2022/04/09 10:37:48;;;;;;;;;;;;;;;;;;1542769;28;113076;-74
2022/04/09 10:38:36;;;;;;;;;;;;;;;;;;1543671;27;112238;-74
2022/04/09 10:39:21;;;;;;;;;;;;;;;;;;1548848;28;90901;-74
2022/04/09 10:40:07;;;;;;;;;;;;;;;;;;1554083;28;91150;-74
2022/04/09 10:40:55;;;;;;;;;;;;;;;;;;1554027;28;109348;-74
2022/04/09 10:41:42;;;;;;;;;;;;;;;;;;1554634;28;89389;-74
2022/04/09 10:42:27;;;;;;;;;;;;;;;;;;1556139;28;99118;-73
2022/04/09 10:43:12;;;;;;;;;;;;;;;;;;1555371;27;103408;-71
2022/04/09 10:43:58;;;;;;;;;;;;;;;;;;1555605;27;103764;-73
2022/04/09 10:44:43;;;;;;;;;;;;;;;;;;1556358;27;83436;-72
2022/04/09 10:45:28;;;;;;;;;;;;;;;;;;1555641;27;106325;-71
2022/04/09 10:46:19;;;;;;;;;;;;;;;;;;1555160;27;105948;-70
2022/04/09 10:47:04;;;;;;;;;;;;;;;;;;1554942;27;92486;-70
2022/04/09 10:47:49;;;;;;;;;;;;;;;;;;1553625;28;110820;-70
2022/04/09 10:48:34;;;;;;;;;;;;;;;;;;1549361;27;107029;-70
2022/04/09 10:49:19;;;;;;;;;;;;;;;;;;1552967;27;108807;-70
2022/04/09 10:50:05;;;;;;;;;;;;;;;;;;1551170;27;106164;-70
2022/04/09 10:50:50;;;;;;;;;;;;;;;;;;1548232;27;107648;-71
2022/04/09 10:51:35;;;;;;;;;;;;;;;;;;1550103;28;111500;-71
2022/04/09 10:52:20;;;;;;;;;;;;;;;;;;1547319;28;109360;-70
2022/04/09 10:53:05;;;;;;;;;;;;;;;;;;1549167;27;86860;-71
2022/04/09 10:53:51;;;;;;;;;;;;;;;;;;1542920;27;110358;-71
2022/04/09 10:54:36;;;;;;;;;;;;;;;;;;1545024;28;112087;-70
2022/04/09 10:55:22;;;;;;;;;;;;;;;;;;1543687;27;83536;-70
2022/04/09 10:56:07;;;;;;;;;;;;;;;;;;1544316;28;84834;-70
2022/04/09 10:56:52;;;;;;;;;;;;;;;;;;1541301;27;117519;-70
2022/04/09 10:57:37;;;;;;;;;;;;;;;;;;1542401;27;111912;-70
2022/04/09 10:58:22;;;;;;;;;;;;;;;;;;1540771;27;112540;-70
2022/04/09 10:59:08;;;;;;;;;;;;;;;;;;1542340;27;110789;-70
2022/04/09 10:59:53;;;;;;;;;;;;;;;;;;1543133;28;99292;-70
2022/04/09 11:00:43;;;;;;;;;;;;;;;;;;1541854;28;113867;-70
2022/04/09 11:01:28;;;;;;;;;;;;;;;;;;1539639;28;88827;-71
2022/04/09 11:02:16;;;;;;;;;;;;;;;;;;1537461;27;114440;-70
2022/04/09 11:03:01;;;;;;;;;;;;;;;;;;1528867;27;114001;-70
2022/04/09 11:03:46;;;;;;;;;;;;;;;;;;1526923;28;116412;-70
2022/04/09 11:05:21;;;;;;;;;;;;;;;;;;1522635;28;102834;-70
2022/04/09 11:06:06;;;;;;;;;;;;;;;;;;1519891;28;92569;-70
2022/04/09 11:06:51;;;;;;;;;;;;;;;;;;1518401;28;120741;-70
2022/04/09 11:07:38;;;;;;;;;;;;;;;;;;1517049;28;98114;-70
2022/04/09 11:08:23;;;;;;;;;;;;;;;;;;1513958;28;114238;-70
2022/04/09 11:09:08;;;;;;;;;;;;;;;;;;1513629;28;125029;-70
2022/04/09 11:09:56;;;;;;;;;;;;;;;;;;1513928;28;123569;-71
2022/04/09 11:10:44;;;;;;;;;;;;;;;;;;1514095;28;86811;-70
2022/04/09 11:11:29;;;;;;;;;;;;;;;;;;1515992;28;89178;-70
2022/04/09 11:12:14;;;;;;;;;;;;;;;;;;1516852;28;120716;-70
2022/04/09 11:12:59;;;;;;;;;;;;;;;;;;1518134;28;106572;-71
2022/04/09 11:13:45;;;;;;;;;;;;;;;;;;1519370;28;117896;-70
2022/04/09 11:14:30;;;;;;;;;;;;;;;;;;1524701;28;117267;-70
2022/04/09 11:15:15;;;;;;;;;;;;;;;;;;1530148;28;117780;-70
2022/04/09 11:16:00;;;;;;;;;;;;;;;;;;1530494;28;117187;-70
2022/04/09 11:16:45;;;;;;;;;;;;;;;;;;1534108;28;114596;-70
2022/04/09 11:17:30;;;;;;;;;;;;;;;;;;1536100;28;113743;-71
2022/04/09 11:18:15;;;;;;;;;;;;;;;;;;1541278;27;105465;-70
2022/04/09 11:19:01;;;;;;;;;;;;;;;;;;1538353;27;112000;-71
2022/04/09 11:19:47;;;;;;;;;;;;;;;;;;1540908;28;97597;-70
2022/04/09 11:20:32;;;;;;;;;;;;;;;;;;1541257;28;112697;-70
2022/04/09 11:21:17;;;;;;;;;;;;;;;;;;1543010;28;88410;-70
2022/04/09 11:22:02;;;;;;;;;;;;;;;;;;1542654;28;111009;-70
2022/04/09 11:22:47;;;;;;;;;;;;;;;;;;1543197;28;111759;-70
2022/04/09 11:23:33;;;;;;;;;;;;;;;;;;1549945;28;83311;-70
2022/04/09 11:24:18;;;;;;;;;;;;;;;;;;1551406;28;110020;-70
2022/04/09 11:25:03;;;;;;;;;;;;;;;;;;1552298;27;106867;-70
2022/04/09 11:25:48;;;;;;;;;;;;;;;;;;1553225;27;98164;-70
2022/04/09 11:26:33;;;;;;;;;;;;;;;;;;1554205;28;101718;-70
2022/04/09 11:27:18;;;;;;;;;;;;;;;;;;1551506;27;101751;-70
2022/04/09 11:28:03;;;;;;;;;;;;;;;;;;1547884;28;109421;-70
2022/04/09 11:28:48;;;;;;;;;;;;;;;;;;1548175;28;98101;-70
2022/04/09 11:29:34;;;;;;;;;;;;;;;;;;1548227;28;108715;-70
2022/04/09 11:30:19;;;;;;;;;;;;;;;;;;1550781;28;102462;-71
2022/04/09 11:31:04;;;;;;;;;;;;;;;;;;1547870;28;103628;-71
2022/04/09 11:31:49;;;;;;;;;;;;;;;;;;1547450;28;107036;-71
2022/04/09 11:32:35;;;;;;;;;;;;;;;;;;1547086;28;101094;-71
2022/04/09 11:33:21;;;;;;;;;;;;;;;;;;1552203;28;108982;-70
2022/04/09 11:34:06;;;;;;;;;;;;;;;;;;1551945;27;106653;-70
2022/04/09 11:34:51;;;;;;;;;;;;;;;;;;1551190;27;110512;-70
2022/04/09 11:35:36;;;;;;;;;;;;;;;;;;1549779;27;104827;-71
2022/04/09 11:36:21;;;;;;;;;;;;;;;;;;1551514;28;109980;-71
2022/04/09 11:37:06;;;;;;;;;;;;;;;;;;1548115;28;110410;-71
2022/04/09 11:37:51;;;;;;;;;;;;;;;;;;1545196;28;113430;-71
2022/04/09 11:38:36;;;;;;;;;;;;;;;;;;1541064;28;110038;-71
2022/04/09 11:39:21;;;;;;;;;;;;;;;;;;1540251;28;101701;-71
2022/04/09 11:40:06;;;;;;;;;;;;;;;;;;1541053;28;112298;-71
2022/04/09 11:40:52;;;;;;;;;;;;;;;;;;1540626;28;110795;-71
2022/04/09 11:41:37;;;;;;;;;;;;;;;;;;1539724;28;92415;-71
2022/04/09 11:42:23;;;;;;;;;;;;;;;;;;1539013;28;113377;-71
2022/04/09 11:43:08;;;;;;;;;;;;;;;;;;1538107;27;107924;-71
2022/04/09 11:43:54;;;;;;;;;;;;;;;;;;1536249;28;116029;-71
2022/04/09 11:44:39;;;;;;;;;;;;;;;;;;1535104;28;99558;-70
2022/04/09 11:45:25;;;;;;;;;;;;;;;;;;1533647;28;107347;-71
2022/04/09 11:46:10;;;;;;;;;;;;;;;;;;1532904;28;106909;-71
2022/04/09 11:46:55;;;;;;;;;;;;;;;;;;1536890;27;98943;-71
2022/04/09 11:47:40;;;;;;;;;;;;;;;;;;1532926;27;105268;-71
2022/04/09 11:48:26;;;;;;;;;;;;;;;;;;1527859;28;117759;-71
2022/04/09 11:49:11;;;;;;;;;;;;;;;;;;1528092;28;117330;-71
2022/04/09 11:49:56;;;;;;;;;;;;;;;;;;1529307;28;104111;-71
2022/04/09 11:50:41;;;;;;;;;;;;;;;;;;1532890;28;116584;-71
2022/04/09 11:51:26;;;;;;;;;;;;;;;;;;1532000;28;114360;-71
2022/04/09 11:52:11;;;;;;;;;;;;;;;;;;1531127;28;104698;-71
2022/04/09 11:52:56;;;;;;;;;;;;;;;;;;1533604;28;109185;-71
2022/04/09 11:53:41;;;;;;;;;;;;;;;;;;1539139;27;108076;-71
2022/04/09 11:54:27;;;;;;;;;;;;;;;;;;1539236;27;116142;-71
2022/04/09 11:55:12;;;;;;;;;;;;;;;;;;1540189;28;104250;-71
2022/04/09 11:55:57;;;;;;;;;;;;;;;;;;1539149;27;101881;-71
2022/04/09 11:56:42;;;;;;;;;;;;;;;;;;1537233;28;112901;-71
2022/04/09 11:57:27;;;;;;;;;;;;;;;;;;1532450;28;117928;-71
2022/04/09 11:58:14;;;;;;;;;;;;;;;;;;1540973;27;115140;-72
2022/04/09 11:58:59;;;;;;;;;;;;;;;;;;1535720;27;109314;-70
2022/04/09 11:59:44;;;;;;;;;;;;;;;;;;1535613;27;114909;-70
2022/04/09 12:00:30;;;;;;;;;;;;;;;;;;1535447;27;114584;-71
2022/04/09 12:01:15;;;;;;;;;;;;;;;;;;1533588;27;96008;-71
2022/04/09 12:02:01;;;;;;;;;;;;;;;;;;1532503;27;119576;-71
2022/04/09 12:02:46;;;;;;;;;;;;;;;;;;1527125;27;118581;-71
2022/04/09 12:03:31;;;;;;;;;;;;;;;;;;1527442;27;111327;-71
2022/04/09 12:04:16;;;;;;;;;;;;;;;;;;1528331;27;119551;-71
2022/04/09 12:05:01;;;;;;;;;;;;;;;;;;1531298;27;121914;-71
2022/04/09 12:05:46;;;;;;;;;;;;;;;;;;1529463;27;120612;-71
2022/04/09 12:06:32;;;;;;;;;;;;;;;;;;1527094;27;91896;-71
2022/04/09 12:07:17;;;;;;;;;;;;;;;;;;1527469;27;118102;-71
2022/04/09 12:08:02;;;;;;;;;;;;;;;;;;1514523;28;116234;-71
2022/04/09 12:08:47;;;;;;;;;;;;;;;;;;1515212;28;107757;-71
2022/04/09 12:09:32;;;;;;;;;;;;;;;;;;1515081;28;124599;-72
2022/04/09 12:10:17;;;;;;;;;;;;;;;;;;1514878;28;122177;-72
2022/04/09 12:11:02;;;;;;;;;;;;;;;;;;1512153;28;123133;-72
2022/04/09 12:11:47;;;;;;;;;;;;;;;;;;1508424;28;122998;-71
2022/04/09 12:12:32;;;;;;;;;;;;;;;;;;1505362;28;125440;-72
2022/04/09 12:13:17;;;;;;;;;;;;;;;;;;1501895;28;125096;-71
2022/04/09 12:14:03;;;;;;;;;;;;;;;;;;1502846;28;126576;-72
2022/04/09 12:14:48;;;;;;;;;;;;;;;;;;1498789;28;126300;-72
2022/04/09 12:15:33;;;;;;;;;;;;;;;;;;1494190;28;129014;-72
2022/04/09 12:16:18;;;;;;;;;;;;;;;;;;1490909;28;115120;-72
2022/04/09 12:17:03;;;;;;;;;;;;;;;;;;1490106;27;128044;-72
2022/04/09 12:17:48;;;;;;;;;;;;;;;;;;1487252;28;129122;-71
2022/04/09 12:18:33;;;;;;;;;;;;;;;;;;1487598;28;129962;-72
2022/04/09 12:19:18;;;;;;;;;;;;;;;;;;1493111;28;132221;-71
2022/04/09 12:20:04;;;;;;;;;;;;;;;;;;1489221;27;133956;-72
2022/04/09 12:20:49;;;;;;;;;;;;;;;;;;1489378;27;101160;-72
2022/04/09 12:21:35;;;;;;;;;;;;;;;;;;1484500;27;129434;-72
2022/04/09 12:22:20;;;;;;;;;;;;;;;;;;1476758;27;83421;-72
2022/04/09 12:23:05;;;;;;;;;;;;;;;;;;1480802;28;127248;-72
2022/04/09 12:23:50;;;;;;;;;;;;;;;;;;1473025;28;135887;-72
2022/04/09 12:24:36;;;;;;;;;;;;;;;;;;1475918;28;135515;-71
2022/04/09 12:25:21;;;;;;;;;;;;;;;;;;1481680;27;134766;-72
2022/04/09 12:26:06;;;;;;;;;;;;;;;;;;1485947;27;133872;-72
2022/04/09 12:26:51;;;;;;;;;;;;;;;;;;1492871;28;100335;-72
2022/04/09 12:27:36;;;;;;;;;;;;;;;;;;1498243;27;129777;-72
2022/04/09 12:28:22;;;;;;;;;;;;;;;;;;1494872;27;130737;-72
2022/04/09 12:29:11;;;;;;;;;;;;;;;;;;1495540;28;97360;-72
2022/04/09 12:29:58;;;;;;;;;;;;;;;;;;1496775;28;106893;-72
2022/04/09 12:30:45;;;;;;;;;;;;;;;;;;1496939;28;97416;-72
2022/04/09 12:31:32;;;;;;;;;;;;;;;;;;1492288;28;83449;-72
2022/04/09 12:32:18;;;;;;;;;;;;;;;;;;1482429;28;94611;-72
2022/04/09 12:33:03;;;;;;;;;;;;;;;;;;1479288;28;84910;-72
2022/04/09 12:33:48;;;;;;;;;;;;;;;;;;1484778;28;132777;-71
2022/04/09 12:34:33;;;;;;;;;;;;;;;;;;1478046;28;134329;-72
2022/04/09 12:35:18;;;;;;;;;;;;;;;;;;1475670;28;135227;-72
2022/04/09 12:36:04;;;;;;;;;;;;;;;;;;1472400;28;135426;-72
2022/04/09 12:36:58;;;;;;;;;0.00;0.00;;;;;;;;1492698;28;128709;-72
2022/04/09 12:37:44;;;;;;;;;0.00;0.00;;;;;;;;1555124;28;83560;-71
2022/04/09 12:38:31;;;;;;;;;0.00;0.00;;;;;;;;1554303;28;83118;-72
2022/04/09 12:39:24;;;;;;;;;0.00;0.00;;;;;;;;1554241;28;83381;-72
2022/04/09 12:40:11;;;;;;;;;0.00;0.00;;;;;;;;1554216;28;83472;-72
2022/04/09 12:41:01;;;;;;;;;0.00;0.00;;;;;;;;1553521;28;83515;-72
2022/04/09 12:41:48;;;;;;;;;0.00;0.00;;;;;;;;1556643;28;82947;-72
2022/04/09 12:42:33;;;;;;;;;0.00;0.00;;;;;;;;1554001;28;83404;-72
2022/04/09 12:43:40;;;;;;;;;0.00;0.00;;;;;;;;1554155;28;83518;-72
2022/04/09 12:44:29;;;;;;;;;0.00;0.00;;;;;;;;1554201;28;83555;-72
2022/04/09 12:45:16;;;;;;;;;0.00;0.00;;;;;;;;1554173;28;83651;-72
2022/04/09 12:46:02;;;;;;;;;0.00;0.00;;;;;;;;1554389;28;83132;-72
2022/04/09 12:46:48;;;;;;;;;0.00;0.00;;;;;;;;1554993;28;83577;-72
2022/04/09 12:47:33;;;;;;;;;0.00;0.00;;;;;;;;1554012;27;83450;-72
2022/04/09 12:48:18;;;;;;;;;0.00;0.00;;;;;;;;1553916;28;83906;-72
2022/04/09 12:49:04;;;;;;;;;0.00;0.00;;;;;;;;1554225;28;83621;-72
2022/04/09 12:49:49;;;;;;;;;0.00;0.00;;;;;;;;1554328;28;83573;-72
2022/04/09 12:50:35;;;;;;;;;0.00;0.00;;;;;;;;1554087;28;83580;-72
2022/04/09 12:51:21;;;;;;;;;0.00;0.00;;;;;;;;1554262;28;84055;-72
2022/04/09 12:52:08;;;;;;;;;0.00;0.00;;;;;;;;1553558;28;83566;-72
2022/04/09 12:52:55;;;;;;;;;0.00;0.00;;;;;;;;1554331;28;83464;-72
2022/04/09 12:53:42;;;;;;;;;0.00;0.00;;;;;;;;1554291;28;84052;-72
2022/04/09 12:54:28;;;;;;;;;0.40;0.00;;;;;;;;1554230;28;83518;-72
2022/04/09 12:55:18;;;;;;;;;0.00;0.00;;;;;;;;1554174;28;83731;-72
2022/04/09 12:56:04;;;;;;;;;0.00;0.00;;;;;;;;1554178;28;83425;-71
2022/04/09 12:56:50;;;;;;;;;0.00;0.00;;;;;;;;1554232;28;83645;-72
2022/04/09 12:57:35;;;;;;;;;0.00;0.00;;;;;;;;1554131;28;83827;-72
2022/04/09 12:58:20;;;;;;;;;0.00;0.00;;;;;;;;1554247;28;83550;-72
2022/04/09 12:59:06;;;;;;;;;0.00;0.00;;;;;;;;1554073;28;83327;-72
2022/04/09 12:59:51;;;;;;;;;0.00;0.00;;;;;;;;1553850;28;83669;-72
2022/04/09 13:00:38;;;;;;;;;0.00;0.00;;;;;;;;1553505;28;83444;-72
2022/04/09 13:01:23;;;;;;;;;0.00;0.00;;;;;;;;1554103;28;83836;-72
2022/04/09 13:02:09;;;;;;;;;0.00;0.00;;;;;;;;1557718;28;86178;-72
2022/04/09 13:02:55;;;;;;;;;0.00;0.00;;;;;;;;1560074;28;83437;-72
2022/04/09 13:03:40;;;;;;;;;0.00;0.00;;;;;;;;1560597;28;83707;-72
2022/04/09 13:04:26;;;;;;;;;0.00;0.00;;;;;;;;1554117;28;84142;-72
2022/04/09 13:05:11;;;;;;;;;0.00;0.00;;;;;;;;1554047;28;83424;-72
2022/04/09 13:05:57;;;;;;;;;0.00;0.00;;;;;;;;1554095;28;84448;-72
2022/04/09 13:06:42;;;;;;;;;0.00;0.00;;;;;;;;1553679;27;83982;-72
2022/04/09 13:07:28;;;;;;;;;0.00;0.00;;;;;;;;1554430;28;83346;-72
2022/04/09 13:08:13;;;;;;;;;0.00;0.00;;;;;;;;1554103;28;83981;-72
2022/04/09 13:08:59;;;;;;;;;0.00;0.00;;;;;;;;1554280;28;83118;-72
2022/04/09 13:09:44;;;;;;;;;0.00;0.00;;;;;;;;1554043;28;83824;-72
2022/04/09 13:10:29;;;;;;;;;0.00;0.00;;;;;;;;1554124;28;83847;-72
2022/04/09 13:11:15;;;;;;;;;0.00;0.00;;;;;;;;1553911;28;84109;-72
2022/04/09 13:12:00;;;;;;;;;0.00;0.00;;;;;;;;1554223;28;83237;-72
2022/04/09 13:12:45;;;;;;;;;0.00;0.00;;;;;;;;1554156;28;84578;-72
2022/04/09 13:13:31;;;;;;;;;0.00;0.00;;;;;;;;1554079;28;83969;-72
2022/04/09 13:14:16;;;;;;;;;0.00;0.00;;;;;;;;1554025;28;84514;-72
2022/04/09 13:15:03;;;;;;;;;0.00;0.00;;;;;;;;1554106;28;83989;-72
2022/04/09 13:15:49;;;;;;;;;0.00;0.00;;;;;;;;1554175;28;84463;-71
2022/04/09 13:16:34;;;;;;;;;0.00;0.00;;;;;;;;1554043;28;85209;-71
2022/04/09 13:17:19;;;;;;;;;0.00;0.00;;;;;;;;1559680;28;82986;-71
2022/04/09 13:18:04;;;;;;;;;0.00;0.00;;;;;;;;1560092;28;84276;-71
2022/04/09 13:18:50;;;;;;;;;0.00;0.00;;;;;;;;1560337;27;83161;-72
2022/04/09 13:19:35;;;;;;;;;0.00;0.00;;;;;;;;1560270;27;83878;-71
2022/04/09 13:20:20;;;;;;;;;0.00;0.00;;;;;;;;1560169;27;83826;-71
2022/04/09 13:21:06;;;;;;;;;0.00;0.00;;;;;;;;1559928;28;84109;-71
2022/04/09 13:21:53;;;;;;;;;0.00;0.00;;;;;;;;1559599;28;84165;-71
2022/04/09 13:22:38;;;;;;;;;0.00;0.00;;;;;;;;1560130;28;84032;-71
2022/04/09 13:23:24;;;;;;;;;0.00;0.00;;;;;;;;1560318;28;83766;-71
2022/04/09 13:24:09;;;;;;;;;0.00;0.00;;;;;;;;1556958;27;84307;-71
2022/04/09 13:24:54;;;;;;;;;0.00;0.00;;;;;;;;1556063;27;83933;-71
2022/04/09 13:25:40;;;;;;;;;0.00;0.00;;;;;;;;1562980;27;83496;-71
2022/04/09 13:26:25;;;;;;;;;0.00;0.00;;;;;;;;1560144;28;83486;-71
2022/04/09 13:27:10;;;;;;;;;0.00;0.00;;;;;;;;1560069;28;83431;-71
2022/04/09 13:27:56;;;;;;;;;0.00;0.00;;;;;;;;1560238;28;83477;-71
2022/04/09 13:28:41;;;;;;;;;0.00;0.00;;;;;;;;1560278;27;83502;-71
2022/04/09 13:29:26;;;;;;;;;0.00;0.00;;;;;;;;1560206;28;83473;-71
2022/04/09 13:30:11;;;;;;;;;0.00;0.00;;;;;;;;1560290;28;83338;-71
2022/04/09 13:30:59;;;;;;;;;0.00;0.00;;;;;;;;1560394;27;83245;-71
2022/04/09 13:31:46;;;;;;;;;0.00;0.00;;;;;;;;1554635;28;83599;-71
2022/04/09 13:32:31;;;;;;;;;0.00;0.00;;;;;;;;1554061;28;83198;-71
2022/04/09 13:33:16;;;;;;;;;0.00;0.00;;;;;;;;1553958;28;83488;-71
2022/04/09 13:34:02;;;;;;;;;0.00;0.00;;;;;;;;1554061;28;83207;-71
2022/04/09 13:34:47;;;;;;;;;0.00;0.00;;;;;;;;1554052;28;83368;-71
2022/04/09 13:35:34;;;;;;;;;0.00;0.00;;;;;;;;1553659;28;83113;-71
2022/04/09 13:36:19;;;;;;;;;0.00;0.00;;;;;;;;1553558;28;83495;-71
2022/04/09 13:37:04;;;;;;;;;0.00;0.00;;;;;;;;1560112;28;83343;-71
2022/04/09 13:37:50;;;;;;;;;0.00;0.00;;;;;;;;1560301;28;83219;-71
2022/04/09 13:38:35;;;;;;;;;0.00;0.00;;;;;;;;1560232;27;83552;-71
2022/04/09 13:39:20;;;;;;;;;0.00;0.00;;;;;;;;1560181;28;83518;-71
2022/04/09 13:40:06;;;;;;;;;0.00;0.00;;;;;;;;1559781;28;83764;-71
2022/04/09 13:40:51;;;;;;;;;0.00;0.00;;;;;;;;1559792;28;83253;-71
2022/04/09 13:41:37;;;;;;;;;0.00;0.00;;;;;;;;1559779;28;83234;-71
2022/04/09 13:42:22;;;;;;;;;0.00;0.00;;;;;;;;1560176;27;83178;-71
2022/04/09 13:43:07;;;;;;;;;0.00;0.00;;;;;;;;1560289;28;83474;-71
2022/04/09 13:43:54;;;;;;;;;;;;;;;;;;1560608;28;83384;-71
2022/04/09 13:44:39;;;;;;;;;;;;;;;;;;1556270;28;97372;-71
2022/04/09 13:45:25;;;;;;;;;;;;;;;;;;1555367;28;108320;-71
2022/04/09 13:46:10;;;;;;;;;;;;;;;;;;1553897;27;90053;-71
2022/04/09 13:46:55;;;;;;;;;;;;;;;;;;1558818;27;108771;-71
2022/04/09 13:47:40;;;;;;;;;;;;;;;;;;1555864;27;108940;-71
2022/04/09 13:48:25;;;;;;;;;;;;;;;;;;1555580;27;99562;-71
2022/04/09 13:49:10;;;;;;;;;;;;;;;;;;1555636;27;106911;-71
2022/04/09 13:49:55;;;;;;;;;;;;;;;;;;1555401;27;108639;-71
2022/04/09 13:50:40;;;;;;;;;;;;;;;;;;1555192;27;103106;-71
2022/04/09 13:51:26;;;;;;;;;;;;;;;;;;1552820;28;103705;-72
2022/04/09 13:52:11;;;;;;;;;;;;;;;;;;1553697;28;100559;-71
2022/04/09 13:52:56;;;;;;;;;;;;;;;;;;1549651;28;104206;-71
2022/04/09 13:53:41;;;;;;;;;;;;;;;;;;1549870;28;91506;-71
2022/04/09 13:54:26;;;;;;;;;;;;;;;;;;1549649;28;104447;-71
2022/04/09 13:55:11;;;;;;;;;;;;;;;;;;1549768;28;104121;-71
2022/04/09 13:55:56;;;;;;;;;;;;;;;;;;1550181;28;101273;-71
2022/04/09 13:56:41;;;;;;;;;;;;;;;;;;1549779;28;100210;-71
2022/04/09 13:57:28;;;;;;;;;;;;;;;;;;1549680;28;103654;-71
2022/04/09 13:58:13;;;;;;;;;;;;;;;;;;1549655;28;105138;-71
2022/04/09 13:58:58;;;;;;;;;;;;;;;;;;1550156;28;100408;-71
2022/04/09 13:59:43;;;;;;;;;;;;;;;;;;1550278;28;99295;-71
2022/04/09 14:00:28;;;;;;;;;;;;;;;;;;1550168;28;97845;-71
2022/04/09 14:01:13;;;;;;;;;;;;;;;;;;1552893;27;96756;-71
2022/04/09 14:01:58;;;;;;;;;;;;;;;;;;1556815;27;93750;-71
2022/04/09 14:02:43;;;;;;;;;;;;;;;;;;1556651;27;95350;-71
2022/04/09 14:03:28;;;;;;;;;;;;;;;;;;1556917;27;93878;-71
2022/04/09 14:04:14;;;;;;;;;;;;;;;;;;1556464;27;94084;-71
2022/04/09 14:05:01;;;;;;;;;;;;;;;;;;1556893;27;93051;-71
2022/04/09 14:05:46;;;;;;;;;;;;;;;;;;1557160;27;90943;-71
2022/04/09 14:06:31;;;;;;;;;;;;;;;;;;1550785;27;91655;-71
2022/04/09 14:07:16;;;;;;;;;;;;;;;;;;1550890;28;91707;-71
2022/04/09 14:08:02;;;;;;;;;;;;;;;;;;1553711;28;87614;-71
2022/04/09 14:08:47;;;;;;;;;;;;;;;;;;1550805;28;90111;-71
2022/04/09 14:09:32;;;;;;;;;;;;;;;;;;1550940;28;89188;-71
2022/04/09 14:10:20;;;;;;;;;;;;;;;;;;1550187;28;89319;-71
2022/04/09 14:11:05;;;;;;;;;;;;;;;;;;1550423;28;84415;-71
2022/04/09 14:11:51;;;;;;;;;;;;;;;;;;1550663;28;89896;-71
2022/04/09 14:12:36;;;;;;;;;;;;;;;;;;1550834;28;89999;-70
2022/04/09 14:13:23;;;;;;;;;;;;;;;;;;1550643;28;89055;-71
2022/04/09 14:14:08;;;;;;;;;;;;;;;;;;1552249;28;86486;-71
2022/04/09 14:14:53;;;;;;;;;;;;;;;;;;1551989;28;89315;-71
2022/04/09 14:15:38;;;;;;;;;;;;;;;;;;1551755;28;88972;-71
2022/04/09 14:16:23;;;;;;;;;;;;;;;;;;1556736;28;87379;-71
2022/04/09 14:17:08;;;;;;;;;;;;;;;;;;1558346;27;88617;-71
2022/04/09 14:17:53;;;;;;;;;;;;;;;;;;1558425;27;87006;-71
2022/04/09 14:18:39;;;;;;;;;;;;;;;;;;1558031;27;89789;-71
2022/04/09 14:19:24;;;;;;;;;;;;;;;;;;1557772;27;88656;-71
2022/04/09 14:20:09;;;;;;;;;;;;;;;;;;1558364;27;88845;-71
2022/04/09 14:20:54;;;;;;;;;;;;;;;;;;1556127;27;89144;-71
2022/04/09 14:21:39;;;;;;;;;;;;;;;;;;1557571;28;89363;-70
2022/04/09 14:22:24;;;;;;;;;;;;;;;;;;1560062;27;85993;-71
2022/04/09 14:23:09;;;;;;;;;;;;;;;;;;1564482;27;88878;-71
2022/04/09 14:23:54;;;;;;;;;;;;;;;;;;1564518;27;87628;-71
2022/04/09 14:24:39;;;;;;;;;;;;;;;;;;1563913;27;86784;-71
2022/04/09 14:25:25;;;;;;;;;;;;;;;;;;1557440;27;90234;-70
2022/04/09 14:26:10;;;;;;;;;;;;;;;;;;1557854;28;86656;-71
2022/04/09 14:26:56;;;;;;;;;;;;;;;;;;1557194;27;87865;-72
2022/04/09 14:27:41;;;;;;;;;;;;;;;;;;1557664;28;84328;-71